sensor_id;sensor_type;location;lat;lon;timestamp;pressure;altitude;pressure_sealevel;temperature;humidity
21828;BME280;11076;47.942;11.804;2022-08-21T00:02:31;94462.69;;;15.82;100.00
21828;BME280;11076;47.942;11.804;2022-08-21T00:07:33;94460.28;;;15.85;100.00
21828;BME280;11076;47.942;11.804;2022-08-21T00:12:35;94454.91;;;15.85;100.00
21828;BME280;11076;47.942;11.804;2022-08-21T00:17:38;94447.25;;;15.77;100.00
21828;BME280;11076;47.942;11.804;2022-08-21T00:22:41;94447.09;;;15.67;100.00
21828;BME280;11076;47.942;11.804;2022-08-21T00:27:44;94445.00;;;15.52;100.00
21828;BME280;11076;47.942;11.804;2022-08-21T00:32:48;94445.91;;;15.41;100.00
21828;BME280;11076;47.942;11.804;2022-08-21T00:37:52;94443.56;;;15.27;100.00
21828;BME280;11076;47.942;11.804;2022-08-21T00:42:54;94443.91;;;15.14;100.00
21828;BME280;11076;47.942;11.804;2022-08-21T00:47:57;94447.50;;;15.03;100.00
21828;BME280;11076;47.942;11.804;2022-08-21T00:53:01;94439.34;;;14.98;100.00
21828;BME280;11076;47.942;11.804;2022-08-21T00:58:06;94444.41;;;14.94;100.00
21828;BME280;11076;47.942;11.804;2022-08-21T01:03:13;94442.38;;;14.84;100.00
21828;BME280;11076;47.942;11.804;2022-08-21T01:08:17;94443.00;;;14.75;100.00
21828;BME280;11076;47.942;11.804;2022-08-21T01:13:21;94435.56;;;14.65;100.00
21828;BME280;11076;47.942;11.804;2022-08-21T01:18:26;94433.72;;;14.53;100.00
21828;BME280;11076;47.942;11.804;2022-08-21T01:23:30;94433.56;;;14.43;100.00
21828;BME280;11076;47.942;11.804;2022-08-21T01:28:37;94436.13;;;14.38;100.00
21828;BME280;11076;47.942;11.804;2022-08-21T01:33:40;94441.66;;;14.31;100.00
21828;BME280;11076;47.942;11.804;2022-08-21T01:38:43;94428.97;;;14.27;100.00
21828;BME280;11076;47.942;11.804;2022-08-21T01:43:45;94428.72;;;14.28;100.00
21828;BME280;11076;47.942;11.804;2022-08-21T01:48:48;94426.25;;;14.27;100.00
21828;BME280;11076;47.942;11.804;2022-08-21T01:53:50;94430.72;;;14.21;100.00
21828;BME280;11076;47.942;11.804;2022-08-21T01:58:53;94422.31;;;14.18;100.00
21828;BME280;11076;47.942;11.804;2022-08-21T02:03:56;94417.19;;;14.16;100.00
21828;BME280;11076;47.942;11.804;2022-08-21T02:09:00;94414.19;;;14.12;100.00
21828;BME280;11076;47.942;11.804;2022-08-21T02:14:03;94413.00;;;14.08;100.00
21828;BME280;11076;47.942;11.804;2022-08-21T02:19:05;94409.50;;;14.08;100.00
21828;BME280;11076;47.942;11.804;2022-08-21T02:24:09;94422.13;;;14.07;100.00
21828;BME280;11076;47.942;11.804;2022-08-21T02:29:11;94408.59;;;14.02;100.00
21828;BME280;11076;47.942;11.804;2022-08-21T02:34:14;94405.81;;;13.97;100.00
21828;BME280;11076;47.942;11.804;2022-08-21T02:39:16;94412.16;;;13.91;100.00
21828;BME280;11076;47.942;11.804;2022-08-21T02:44:19;94402.94;;;13.87;100.00
21828;BME280;11076;47.942;11.804;2022-08-21T02:49:21;94408.78;;;13.84;100.00
21828;BME280;11076;47.942;11.804;2022-08-21T02:54:24;94409.25;;;13.81;100.00
21828;BME280;11076;47.942;11.804;2022-08-21T02:59:27;94409.97;;;13.64;100.00
21828;BME280;11076;47.942;11.804;2022-08-21T03:04:30;94408.81;;;13.60;100.00
21828;BME280;11076;47.942;11.804;2022-08-21T03:09:32;94413.63;;;13.58;100.00
21828;BME280;11076;47.942;11.804;2022-08-21T03:14:35;94404.41;;;13.54;100.00
21828;BME280;11076;47.942;11.804;2022-08-21T03:19:37;94407.09;;;13.54;100.00
21828;BME280;11076;47.942;11.804;2022-08-21T03:24:40;94410.50;;;13.49;100.00
21828;BME280;11076;47.942;11.804;2022-08-21T03:29:42;94410.94;;;13.46;100.00
21828;BME280;11076;47.942;11.804;2022-08-21T03:34:45;94410.03;;;13.41;100.00
21828;BME280;11076;47.942;11.804;2022-08-21T03:39:47;94419.59;;;13.37;100.00
21828;BME280;11076;47.942;11.804;2022-08-21T03:44:50;94416.81;;;13.31;100.00
21828;BME280;11076;47.942;11.804;2022-08-21T03:49:53;94416.59;;;13.33;100.00
21828;BME280;11076;47.942;11.804;2022-08-21T03:54:56;94420.09;;;13.33;100.00
21828;BME280;11076;47.942;11.804;2022-08-21T03:59:58;94420.31;;;13.32;100.00
21828;BME280;11076;47.942;11.804;2022-08-21T04:05:01;94426.97;;;13.29;100.00
21828;BME280;11076;47.942;11.804;2022-08-21T04:10:05;94420.53;;;13.30;100.00
21828;BME280;11076;47.942;11.804;2022-08-21T04:15:09;94422.78;;;13.33;100.00
21828;BME280;11076;47.942;11.804;2022-08-21T04:20:11;94426.75;;;13.31;100.00
21828;BME280;11076;47.942;11.804;2022-08-21T04:25:15;94436.03;;;13.28;100.00
21828;BME280;11076;47.942;11.804;2022-08-21T04:30:18;94431.75;;;13.27;100.00
21828;BME280;11076;47.942;11.804;2022-08-21T04:35:22;94440.81;;;13.26;100.00
21828;BME280;11076;47.942;11.804;2022-08-21T04:40:27;94448.31;;;13.24;100.00
21828;BME280;11076;47.942;11.804;2022-08-21T04:45:32;94452.38;;;13.27;100.00
21828;BME280;11076;47.942;11.804;2022-08-21T04:55:47;94464.41;;;13.24;100.00
21828;BME280;11076;47.942;11.804;2022-08-21T05:00:53;94459.78;;;13.31;100.00
21828;BME280;11076;47.942;11.804;2022-08-21T05:05:56;94455.94;;;13.39;100.00
21828;BME280;11076;47.942;11.804;2022-08-21T05:10:59;94453.31;;;14.08;100.00
21828;BME280;11076;47.942;11.804;2022-08-21T05:16:02;94452.78;;;17.13;100.00
21828;BME280;11076;47.942;11.804;2022-08-21T05:21:04;94450.66;;;16.12;100.00
21828;BME280;11076;47.942;11.804;2022-08-21T05:26:07;94465.03;;;15.22;100.00
21828;BME280;11076;47.942;11.804;2022-08-21T05:31:09;94461.13;;;14.96;100.00
21828;BME280;11076;47.942;11.804;2022-08-21T05:36:12;94464.63;;;14.97;100.00
21828;BME280;11076;47.942;11.804;2022-08-21T05:41:14;94468.53;;;15.06;100.00
21828;BME280;11076;47.942;11.804;2022-08-21T05:46:17;94467.47;;;15.41;100.00
21828;BME280;11076;47.942;11.804;2022-08-21T05:51:19;94465.53;;;15.92;100.00
21828;BME280;11076;47.942;11.804;2022-08-21T05:56:21;94468.66;;;15.84;100.00
21828;BME280;11076;47.942;11.804;2022-08-21T06:01:24;94472.03;;;15.96;100.00
21828;BME280;11076;47.942;11.804;2022-08-21T06:06:27;94470.91;;;17.23;100.00
21828;BME280;11076;47.942;11.804;2022-08-21T06:11:30;94454.38;;;22.90;90.74
21828;BME280;11076;47.942;11.804;2022-08-21T06:16:33;94466.75;;;20.88;96.57
21828;BME280;11076;47.942;11.804;2022-08-21T06:21:35;94470.97;;;18.86;94.12
21828;BME280;11076;47.942;11.804;2022-08-21T06:26:38;94462.88;;;18.18;97.72
21828;BME280;11076;47.942;11.804;2022-08-21T06:31:40;94457.66;;;18.01;100.00
21828;BME280;11076;47.942;11.804;2022-08-21T06:36:43;94462.81;;;18.03;100.00
21828;BME280;11076;47.942;11.804;2022-08-21T06:41:45;94464.66;;;17.92;97.40
21828;BME280;11076;47.942;11.804;2022-08-21T06:46:48;94463.53;;;17.88;98.20
21828;BME280;11076;47.942;11.804;2022-08-21T06:51:50;94457.91;;;17.95;97.10
21828;BME280;11076;47.942;11.804;2022-08-21T06:56:53;94461.50;;;18.11;96.09
21828;BME280;11076;47.942;11.804;2022-08-21T07:01:55;94459.88;;;18.09;93.44
21828;BME280;11076;47.942;11.804;2022-08-21T07:06:58;94456.66;;;18.18;91.56
21828;BME280;11076;47.942;11.804;2022-08-21T07:12:01;94452.94;;;18.39;92.99
21828;BME280;11076;47.942;11.804;2022-08-21T07:17:04;94456.78;;;18.48;91.42
21828;BME280;11076;47.942;11.804;2022-08-21T07:22:07;94447.56;;;18.49;88.77
21828;BME280;11076;47.942;11.804;2022-08-21T07:27:09;94446.84;;;18.80;89.42
21828;BME280;11076;47.942;11.804;2022-08-21T07:32:12;94441.44;;;19.00;87.74
21828;BME280;11076;47.942;11.804;2022-08-21T07:37:16;94446.34;;;19.08;87.80
21828;BME280;11076;47.942;11.804;2022-08-21T07:42:18;94440.63;;;19.05;85.25
21828;BME280;11076;47.942;11.804;2022-08-21T07:47:21;94441.72;;;19.24;85.45
21828;BME280;11076;47.942;11.804;2022-08-21T07:52:23;94439.00;;;19.24;84.26
21828;BME280;11076;47.942;11.804;2022-08-21T07:57:26;94431.34;;;19.67;85.88
21828;BME280;11076;47.942;11.804;2022-08-21T08:02:29;94426.50;;;19.64;80.86
21828;BME280;11076;47.942;11.804;2022-08-21T08:07:32;94422.94;;;19.84;81.16
21828;BME280;11076;47.942;11.804;2022-08-21T08:12:39;94423.13;;;20.14;79.35
21828;BME280;11076;47.942;11.804;2022-08-21T08:17:42;94424.72;;;20.15;78.98
21828;BME280;11076;47.942;11.804;2022-08-21T08:22:45;94418.44;;;20.30;76.64
21828;BME280;11076;47.942;11.804;2022-08-21T08:27:48;94412.38;;;20.43;77.40
21828;BME280;11076;47.942;11.804;2022-08-21T08:32:51;94409.31;;;20.55;76.06
21828;BME280;11076;47.942;11.804;2022-08-21T08:37:54;94409.31;;;20.55;75.40
21828;BME280;11076;47.942;11.804;2022-08-21T08:42:57;94411.44;;;20.73;74.39
21828;BME280;11076;47.942;11.804;2022-08-21T08:48:04;94407.41;;;21.05;71.10
21828;BME280;11076;47.942;11.804;2022-08-21T08:53:20;94401.38;;;20.74;66.96
21828;BME280;11076;47.942;11.804;2022-08-21T08:58:26;94409.72;;;20.82;65.56
21828;BME280;11076;47.942;11.804;2022-08-21T09:03:30;94411.28;;;20.94;65.77
21828;BME280;11076;47.942;11.804;2022-08-21T09:08:54;94408.50;;;20.99;65.00
21828;BME280;11076;47.942;11.804;2022-08-21T09:30:05;94396.13;;;22.23;60.73
21828;BME280;11076;47.942;11.804;2022-08-21T09:35:14;94399.66;;;22.67;55.92
21828;BME280;11076;47.942;11.804;2022-08-21T09:45:28;94384.94;;;23.86;54.87
21828;BME280;11076;47.942;11.804;2022-08-21T09:50:31;94389.78;;;24.30;52.25
21828;BME280;11076;47.942;11.804;2022-08-21T09:55:49;94398.38;;;24.10;51.28
21828;BME280;11076;47.942;11.804;2022-08-21T10:01:17;94386.94;;;24.63;50.63
21828;BME280;11076;47.942;11.804;2022-08-21T10:06:26;94380.00;;;25.02;52.83
21828;BME280;11076;47.942;11.804;2022-08-21T10:11:29;94390.84;;;24.57;51.66
21828;BME280;11076;47.942;11.804;2022-08-21T10:38:56;94384.00;;;21.92;58.36
21828;BME280;11076;47.942;11.804;2022-08-21T10:44:30;94370.00;;;23.17;56.34
21828;BME280;11076;47.942;11.804;2022-08-21T10:49:44;94371.28;;;23.99;52.36
21828;BME280;11076;47.942;11.804;2022-08-21T10:55:00;94360.94;;;24.38;51.22
21828;BME280;11076;47.942;11.804;2022-08-21T11:00:09;94368.16;;;24.70;49.02
21828;BME280;11076;47.942;11.804;2022-08-21T11:05:27;94359.47;;;25.27;48.11
21828;BME280;11076;47.942;11.804;2022-08-21T11:10:41;94351.94;;;25.33;48.48
21828;BME280;11076;47.942;11.804;2022-08-21T11:21:42;94346.47;;;25.33;46.06
21828;BME280;11076;47.942;11.804;2022-08-21T11:26:51;94340.97;;;25.95;42.66
21828;BME280;11076;47.942;11.804;2022-08-21T11:43:20;94326.66;;;24.68;46.60
21828;BME280;11076;47.942;11.804;2022-08-21T11:48:44;94331.34;;;24.04;46.79
21828;BME280;11076;47.942;11.804;2022-08-21T11:54:05;94332.56;;;23.84;48.62
21828;BME280;11076;47.942;11.804;2022-08-21T11:59:16;94328.28;;;23.91;48.84
21828;BME280;11076;47.942;11.804;2022-08-21T12:04:32;94326.66;;;24.32;47.12
21828;BME280;11076;47.942;11.804;2022-08-21T12:09:36;94332.41;;;24.30;48.96
21828;BME280;11076;47.942;11.804;2022-08-21T12:14:50;94333.91;;;24.36;51.31
21828;BME280;11076;47.942;11.804;2022-08-21T12:20:02;94319.50;;;24.08;52.82
21828;BME280;11076;47.942;11.804;2022-08-21T12:25:19;94314.00;;;24.22;52.56
21828;BME280;11076;47.942;11.804;2022-08-21T12:30:34;94304.28;;;24.89;50.95
21828;BME280;11076;47.942;11.804;2022-08-21T12:35:39;94303.44;;;25.02;49.17
21828;BME280;11076;47.942;11.804;2022-08-21T12:41:05;94303.66;;;25.14;49.14
21828;BME280;11076;47.942;11.804;2022-08-21T12:46:38;94293.06;;;24.68;45.74
21828;BME280;11076;47.942;11.804;2022-08-21T12:51:57;94297.78;;;24.39;48.61
21828;BME280;11076;47.942;11.804;2022-08-21T12:57:05;94289.00;;;24.29;49.61
21828;BME280;11076;47.942;11.804;2022-08-21T13:02:19;94278.03;;;24.42;48.69
21828;BME280;11076;47.942;11.804;2022-08-21T13:07:29;94281.69;;;24.52;47.31
21828;BME280;11076;47.942;11.804;2022-08-21T13:12:33;94277.81;;;24.98;48.28
21828;BME280;11076;47.942;11.804;2022-08-21T13:17:39;94265.88;;;25.16;45.61
21828;BME280;11076;47.942;11.804;2022-08-21T13:22:43;94267.00;;;25.15;44.03
21828;BME280;11076;47.942;11.804;2022-08-21T13:27:58;94264.19;;;25.07;44.44
21828;BME280;11076;47.942;11.804;2022-08-21T13:33:05;94267.66;;;23.80;46.97
21828;BME280;11076;47.942;11.804;2022-08-21T13:38:09;94258.22;;;23.17;49.36
21828;BME280;11076;47.942;11.804;2022-08-21T13:43:14;94263.88;;;22.74;48.94
21828;BME280;11076;47.942;11.804;2022-08-21T13:48:20;94252.78;;;22.84;49.24
21828;BME280;11076;47.942;11.804;2022-08-21T13:53:29;94250.97;;;23.54;50.26
21828;BME280;11076;47.942;11.804;2022-08-21T13:58:53;94256.94;;;23.98;49.61
21828;BME280;11076;47.942;11.804;2022-08-21T14:04:02;94252.19;;;23.20;51.91
21828;BME280;11076;47.942;11.804;2022-08-21T14:09:35;94254.25;;;22.63;51.41
21828;BME280;11076;47.942;11.804;2022-08-21T14:14:42;94245.50;;;23.13;50.66
21828;BME280;11076;47.942;11.804;2022-08-21T14:19:46;94238.75;;;23.38;50.10
21828;BME280;11076;47.942;11.804;2022-08-21T14:24:59;94236.22;;;23.55;48.68
21828;BME280;11076;47.942;11.804;2022-08-21T14:30:16;94241.16;;;23.81;48.57
21828;BME280;11076;47.942;11.804;2022-08-21T14:35:20;94241.84;;;24.00;48.28
21828;BME280;11076;47.942;11.804;2022-08-21T14:40:24;94237.66;;;24.17;46.55
21828;BME280;11076;47.942;11.804;2022-08-21T14:45:28;94236.38;;;24.37;45.55
21828;BME280;11076;47.942;11.804;2022-08-21T14:50:32;94228.75;;;24.48;45.74
21828;BME280;11076;47.942;11.804;2022-08-21T14:55:35;94221.31;;;24.62;46.27
21828;BME280;11076;47.942;11.804;2022-08-21T15:00:58;94233.75;;;24.68;45.61
21828;BME280;11076;47.942;11.804;2022-08-21T15:06:02;94221.84;;;24.95;46.84
21828;BME280;11076;47.942;11.804;2022-08-21T15:11:06;94232.69;;;24.78;48.14
21828;BME280;11076;47.942;11.804;2022-08-21T15:16:13;94234.16;;;24.02;49.71
21828;BME280;11076;47.942;11.804;2022-08-21T15:21:15;94230.66;;;23.33;50.83
21828;BME280;11076;47.942;11.804;2022-08-21T15:26:18;94230.16;;;23.45;50.42
21828;BME280;11076;47.942;11.804;2022-08-21T15:31:21;94222.56;;;23.55;50.51
21828;BME280;11076;47.942;11.804;2022-08-21T15:36:23;94232.91;;;24.09;49.38
21828;BME280;11076;47.942;11.804;2022-08-21T15:41:26;94231.94;;;24.27;49.69
21828;BME280;11076;47.942;11.804;2022-08-21T15:46:28;94214.25;;;24.92;49.52
21828;BME280;11076;47.942;11.804;2022-08-21T15:51:32;94219.53;;;25.11;48.14
21828;BME280;11076;47.942;11.804;2022-08-21T15:56:38;94225.09;;;24.52;48.25
21828;BME280;11076;47.942;11.804;2022-08-21T16:01:41;94224.19;;;23.70;49.24
21828;BME280;11076;47.942;11.804;2022-08-21T16:06:44;94224.50;;;23.41;49.91
21828;BME280;11076;47.942;11.804;2022-08-21T16:11:47;94226.72;;;23.25;51.06
21828;BME280;11076;47.942;11.804;2022-08-21T16:16:49;94224.31;;;22.77;52.09
21828;BME280;11076;47.942;11.804;2022-08-21T16:21:52;94224.06;;;22.27;53.35
21828;BME280;11076;47.942;11.804;2022-08-21T16:26:55;94216.69;;;22.60;52.86
21828;BME280;11076;47.942;11.804;2022-08-21T16:31:57;94206.28;;;22.95;52.81
21828;BME280;11076;47.942;11.804;2022-08-21T16:37:00;94211.28;;;22.74;54.08
21828;BME280;11076;47.942;11.804;2022-08-21T16:42:03;94215.16;;;22.54;55.04
21828;BME280;11076;47.942;11.804;2022-08-21T16:47:06;94206.94;;;22.73;53.73
21828;BME280;11076;47.942;11.804;2022-08-21T16:52:09;94209.19;;;22.52;54.84
21828;BME280;11076;47.942;11.804;2022-08-21T16:57:11;94211.59;;;22.39;55.72
21828;BME280;11076;47.942;11.804;2022-08-21T17:02:31;94210.28;;;22.37;55.54
21828;BME280;11076;47.942;11.804;2022-08-21T17:07:34;94203.72;;;22.19;56.14
21828;BME280;11076;47.942;11.804;2022-08-21T17:12:40;94204.53;;;22.19;56.61
21828;BME280;11076;47.942;11.804;2022-08-21T17:17:43;94203.94;;;22.03;56.15
21828;BME280;11076;47.942;11.804;2022-08-21T17:22:47;94205.09;;;21.78;57.35
21828;BME280;11076;47.942;11.804;2022-08-21T17:27:50;94214.56;;;21.43;58.00
21828;BME280;11076;47.942;11.804;2022-08-21T17:32:56;94215.16;;;21.11;59.63
21828;BME280;11076;47.942;11.804;2022-08-21T17:38:00;94218.06;;;20.71;61.82
21828;BME280;11076;47.942;11.804;2022-08-21T17:43:07;94222.09;;;20.39;63.99
21828;BME280;11076;47.942;11.804;2022-08-21T17:48:10;94215.22;;;20.18;64.16
21828;BME280;11076;47.942;11.804;2022-08-21T17:53:13;94214.59;;;19.86;65.82
21828;BME280;11076;47.942;11.804;2022-08-21T17:58:19;94217.69;;;19.64;68.64
21828;BME280;11076;47.942;11.804;2022-08-21T18:03:22;94217.06;;;19.23;70.51
21828;BME280;11076;47.942;11.804;2022-08-21T18:08:25;94219.88;;;18.92;71.69
21828;BME280;11076;47.942;11.804;2022-08-21T18:13:32;94227.19;;;18.66;73.23
21828;BME280;11076;47.942;11.804;2022-08-21T18:18:40;94232.66;;;18.40;74.15
21828;BME280;11076;47.942;11.804;2022-08-21T18:23:43;94239.94;;;18.14;75.31
21828;BME280;11076;47.942;11.804;2022-08-21T18:28:46;94244.78;;;17.86;76.60
21828;BME280;11076;47.942;11.804;2022-08-21T18:33:49;94249.59;;;17.69;77.40
21828;BME280;11076;47.942;11.804;2022-08-21T18:38:52;94249.78;;;17.52;77.78
21828;BME280;11076;47.942;11.804;2022-08-21T18:43:55;94255.69;;;17.39;77.88
21828;BME280;11076;47.942;11.804;2022-08-21T18:48:57;94259.66;;;17.16;78.37
21828;BME280;11076;47.942;11.804;2022-08-21T18:54:00;94256.06;;;17.05;79.01
21828;BME280;11076;47.942;11.804;2022-08-21T18:59:04;94261.91;;;16.86;79.49
21828;BME280;11076;47.942;11.804;2022-08-21T19:04:07;94259.94;;;16.77;80.11
21828;BME280;11076;47.942;11.804;2022-08-21T19:09:10;94257.44;;;16.65;80.65
21828;BME280;11076;47.942;11.804;2022-08-21T19:14:13;94254.66;;;16.49;81.32
21828;BME280;11076;47.942;11.804;2022-08-21T19:19:18;94269.16;;;16.43;82.10
21828;BME280;11076;47.942;11.804;2022-08-21T19:24:20;94266.97;;;16.40;82.50
21828;BME280;11076;47.942;11.804;2022-08-21T19:29:23;94271.19;;;16.31;83.11
21828;BME280;11076;47.942;11.804;2022-08-21T19:34:27;94276.78;;;16.19;83.79
21828;BME280;11076;47.942;11.804;2022-08-21T19:39:29;94276.44;;;16.10;84.33
21828;BME280;11076;47.942;11.804;2022-08-21T19:44:34;94279.81;;;15.96;85.76
21828;BME280;11076;47.942;11.804;2022-08-21T19:49:40;94274.56;;;15.84;86.29
21828;BME280;11076;47.942;11.804;2022-08-21T19:54:44;94276.31;;;15.73;86.69
21828;BME280;11076;47.942;11.804;2022-08-21T19:59:47;94276.19;;;15.63;86.70
21828;BME280;11076;47.942;11.804;2022-08-21T20:04:49;94261.81;;;15.52;87.50
21828;BME280;11076;47.942;11.804;2022-08-21T20:09:52;94269.25;;;15.45;87.74
21828;BME280;11076;47.942;11.804;2022-08-21T20:14:54;94275.34;;;15.35;88.33
21828;BME280;11076;47.942;11.804;2022-08-21T20:19:57;94271.19;;;15.27;88.56
21828;BME280;11076;47.942;11.804;2022-08-21T20:25:00;94265.69;;;15.17;89.30
21828;BME280;11076;47.942;11.804;2022-08-21T20:30:04;94267.47;;;15.06;89.85
21828;BME280;11076;47.942;11.804;2022-08-21T20:35:07;94257.94;;;14.99;90.93
21828;BME280;11076;47.942;11.804;2022-08-21T20:40:11;94265.91;;;14.94;91.71
21828;BME280;11076;47.942;11.804;2022-08-21T20:45:21;94269.84;;;14.86;92.02
21828;BME280;11076;47.942;11.804;2022-08-21T20:50:25;94267.59;;;14.78;92.31
21828;BME280;11076;47.942;11.804;2022-08-21T20:55:30;94265.09;;;14.71;92.98
21828;BME280;11076;47.942;11.804;2022-08-21T21:00:37;94256.53;;;14.57;93.62
21828;BME280;11076;47.942;11.804;2022-08-21T21:05:54;94257.50;;;14.51;94.51
21828;BME280;11076;47.942;11.804;2022-08-21T21:11:02;94258.25;;;14.46;95.19
21828;BME280;11076;47.942;11.804;2022-08-21T21:16:10;94253.25;;;14.38;95.75
21828;BME280;11076;47.942;11.804;2022-08-21T21:26:38;94262.72;;;14.24;97.03
21828;BME280;11076;47.942;11.804;2022-08-21T21:31:43;94258.31;;;14.18;97.22
21828;BME280;11076;47.942;11.804;2022-08-21T21:36:55;94260.94;;;14.12;97.40
21828;BME280;11076;47.942;11.804;2022-08-21T21:42:17;94259.78;;;14.08;97.98
21828;BME280;11076;47.942;11.804;2022-08-21T22:04:09;94264.81;;;13.88;100.00
21828;BME280;11076;47.942;11.804;2022-08-21T22:09:22;94261.22;;;13.82;100.00
21828;BME280;11076;47.942;11.804;2022-08-21T22:14:37;94257.63;;;13.77;100.00
21828;BME280;11076;47.942;11.804;2022-08-21T22:19:42;94259.16;;;13.72;100.00
21828;BME280;11076;47.942;11.804;2022-08-21T22:24:51;94250.53;;;13.70;100.00
21828;BME280;11076;47.942;11.804;2022-08-21T22:29:56;94253.38;;;13.64;100.00
21828;BME280;11076;47.942;11.804;2022-08-21T22:40:25;94248.16;;;13.57;100.00
21828;BME280;11076;47.942;11.804;2022-08-21T22:45:30;94247.31;;;13.57;100.00
21828;BME280;11076;47.942;11.804;2022-08-21T22:50:34;94250.91;;;13.62;100.00
21828;BME280;11076;47.942;11.804;2022-08-21T22:55:42;94250.13;;;13.62;100.00
21828;BME280;11076;47.942;11.804;2022-08-21T23:00:54;94243.44;;;13.64;100.00
21828;BME280;11076;47.942;11.804;2022-08-21T23:06:00;94247.66;;;13.60;100.00
21828;BME280;11076;47.942;11.804;2022-08-21T23:11:11;94247.09;;;13.58;100.00
21828;BME280;11076;47.942;11.804;2022-08-21T23:31:56;94231.03;;;13.46;100.00
21828;BME280;11076;47.942;11.804;2022-08-21T23:48:09;94232.22;;;13.27;100.00
21828;BME280;11076;47.942;11.804;2022-08-21T23:58:34;94232.53;;;13.13;100.00
